createdAt,value
2022-11-19T00:01:34.397Z,3.50
2022-11-19T00:04:01.951Z,4.22
2022-11-19T00:06:29.478Z,4.75
2022-11-19T00:08:57.067Z,5.60
2022-11-19T00:11:45.547Z,4.90
2022-11-19T00:14:15.049Z,3.70
2022-11-19T00:16:44.200Z,6.50
2022-11-19T00:19:12.290Z,4.97
2022-11-19T00:21:39.777Z,3.22
2022-11-19T00:24:08.147Z,4.97
2022-11-19T00:26:35.611Z,6.63
2022-11-19T00:29:03.757Z,6.88
2022-11-19T00:31:32.317Z,6.40
2022-11-19T00:33:59.977Z,4.22
2022-11-19T00:36:27.459Z,3.95
2022-11-19T00:38:55.268Z,5.05
2022-11-19T00:41:22.927Z,3.70
2022-11-19T00:43:50.667Z,4.03
2022-11-19T00:46:21.037Z,3.30
2022-11-19T00:48:50.397Z,3.28
2022-11-19T00:51:19.700Z,3.15
2022-11-19T00:53:47.299Z,3.47
2022-11-19T00:56:17.810Z,3.10
2022-11-19T00:58:46.247Z,3.38
2022-11-19T01:01:15.408Z,3.33
2022-11-19T01:03:45.629Z,3.40
2022-11-19T01:06:18.797Z,3.92
2022-11-19T01:08:48.161Z,4.53
2022-11-19T01:11:19.229Z,5.22
2022-11-19T01:13:47.100Z,3.42
2022-11-19T01:16:20.471Z,2.60
2022-11-19T01:18:50.130Z,3.05
2022-11-19T01:21:19.856Z,2.78
2022-11-19T01:23:47.803Z,2.88
2022-11-19T01:26:15.918Z,3.28
2022-11-19T01:28:43.980Z,4.15
2022-11-19T01:31:23.509Z,4.28
2022-11-19T01:33:51.598Z,3.35
2022-11-19T01:36:27.489Z,3.42
2022-11-19T01:38:55.586Z,3.90
2022-11-19T01:41:32.350Z,3.40
2022-11-19T01:44:07.871Z,2.75
2022-11-19T01:46:38.260Z,2.60
2022-11-19T01:49:15.078Z,3.45
2022-11-19T01:51:49.630Z,2.67
2022-11-19T01:54:30.379Z,2.85
2022-11-19T01:57:03.287Z,2.60
2022-11-19T01:59:31.680Z,2.85
2022-11-19T02:01:59.236Z,2.85
2022-11-19T02:04:28.019Z,3.70
2022-11-19T02:06:56.354Z,3.72
2022-11-19T02:09:25.781Z,4.00
2022-11-19T02:12:26.792Z,3.08
2022-11-19T02:15:13.165Z,3.40
2022-11-19T02:18:07.034Z,4.00
2022-11-19T02:21:13.352Z,4.07
2022-11-19T02:24:00.044Z,3.80
2022-11-19T02:26:56.086Z,3.65
2022-11-19T02:30:01.262Z,3.35
2022-11-19T02:32:50.514Z,4.22
2022-11-19T02:35:20.542Z,3.22
2022-11-19T02:37:51.131Z,2.75
2022-11-19T02:40:45.489Z,3.85
2022-11-19T02:43:32.102Z,4.53
2022-11-19T02:46:13.522Z,3.72
2022-11-19T02:48:45.042Z,3.20
2022-11-19T02:51:14.481Z,2.95
2022-11-19T02:53:41.741Z,2.75
2022-11-19T02:56:14.161Z,2.88
2022-11-19T02:59:09.091Z,3.15
2022-11-19T03:01:58.981Z,2.83
2022-11-19T03:04:30.505Z,3.00
2022-11-19T03:07:00.647Z,3.50
2022-11-19T03:09:30.582Z,3.75
2022-11-19T03:12:18.781Z,3.90
2022-11-19T03:15:21.061Z,4.57
2022-11-19T03:17:48.351Z,4.88
2022-11-19T03:20:30.271Z,4.47
2022-11-19T03:23:24.301Z,3.15
2022-11-19T03:26:04.164Z,4.72
2022-11-19T03:28:36.571Z,5.00
2022-11-19T03:31:06.161Z,4.38
2022-11-19T03:33:41.764Z,4.13
2022-11-19T03:36:18.462Z,3.25
2022-11-19T03:38:50.722Z,3.13
2022-11-19T03:41:20.462Z,3.20
2022-11-19T03:43:53.941Z,3.00
2022-11-19T03:46:25.553Z,2.83
2022-11-19T03:48:54.711Z,2.97
2022-11-19T03:51:49.282Z,4.45
2022-11-19T03:54:16.805Z,4.95
2022-11-19T03:56:45.452Z,3.58
2022-11-19T03:59:13.221Z,3.58
2022-11-19T04:01:40.738Z,4.07
2022-11-19T04:04:26.522Z,3.70
2022-11-19T04:06:54.540Z,3.53
2022-11-19T04:09:22.062Z,4.20
2022-11-19T04:14:15.581Z,2.92
2022-11-19T04:16:42.985Z,2.63
2022-11-19T04:19:10.485Z,2.70
2022-11-19T04:21:38.095Z,2.55
2022-11-19T04:24:05.652Z,3.13
2022-11-19T04:26:33.145Z,2.55
2022-11-19T04:29:00.341Z,2.63
2022-11-19T04:31:27.691Z,2.70
2022-11-19T04:33:54.972Z,2.90
2022-11-19T04:36:22.762Z,2.95
2022-11-19T04:38:50.092Z,2.78
2022-11-19T04:41:17.546Z,2.60
2022-11-19T04:43:44.821Z,2.80
2022-11-19T04:46:12.232Z,2.38
2022-11-19T04:48:39.462Z,2.55
2022-11-19T04:51:06.922Z,2.28
2022-11-19T04:53:34.121Z,2.15
2022-11-19T04:56:01.591Z,2.47
2022-11-19T04:58:28.908Z,3.10
2022-11-19T05:00:56.161Z,2.20
2022-11-19T05:03:23.515Z,2.25
2022-11-19T05:05:50.914Z,2.40
2022-11-19T05:08:18.335Z,2.90
2022-11-19T05:10:45.705Z,3.30
2022-11-19T05:13:13.115Z,2.30
2022-11-19T05:15:40.395Z,3.28
2022-11-19T05:18:07.766Z,3.72
2022-11-19T05:20:35.085Z,3.92
2022-11-19T05:23:02.277Z,3.35
2022-11-19T05:25:29.855Z,2.50
2022-11-19T05:27:57.085Z,1.70
2022-11-19T05:30:24.567Z,1.60
2022-11-19T05:32:51.895Z,1.67
2022-11-19T05:35:19.555Z,1.90
2022-11-19T05:37:49.985Z,1.95
2022-11-19T05:40:17.925Z,2.58
2022-11-19T05:42:45.127Z,1.88
2022-11-19T05:45:13.105Z,1.88
2022-11-19T05:47:43.481Z,2.22
2022-11-19T05:50:14.855Z,1.98
2022-11-19T05:52:42.129Z,2.38
2022-11-19T05:55:09.676Z,3.50
2022-11-19T05:57:37.246Z,2.63
2022-11-19T06:00:06.065Z,2.72
2022-11-19T06:02:39.775Z,2.40
2022-11-19T06:05:07.601Z,2.40
2022-11-19T06:07:34.980Z,3.10
2022-11-19T06:12:46.771Z,2.47
2022-11-19T06:15:14.738Z,5.70
2022-11-19T06:17:42.474Z,3.42
2022-11-19T06:20:11.321Z,4.38
2022-11-19T06:22:39.970Z,2.60
2022-11-19T06:25:08.120Z,1.92
2022-11-19T06:27:35.530Z,1.73
2022-11-19T06:30:03.285Z,1.90
2022-11-19T06:32:30.635Z,1.70
2022-11-19T06:34:57.934Z,2.20
2022-11-19T06:37:25.085Z,2.13
2022-11-19T06:39:52.460Z,1.67
2022-11-19T06:42:38.245Z,1.60
2022-11-19T06:45:10.126Z,1.67
2022-11-19T06:47:38.905Z,1.63
2022-11-19T06:50:08.333Z,1.83
2022-11-19T06:52:35.955Z,2.00
2022-11-19T06:55:03.839Z,2.30
2022-11-19T06:57:31.206Z,2.00
2022-11-19T06:59:58.506Z,2.10
2022-11-19T07:02:25.955Z,2.10
2022-11-19T07:04:53.145Z,1.90
2022-11-19T07:07:21.067Z,2.33
2022-11-19T07:09:48.335Z,1.95
2022-11-19T07:12:15.604Z,2.08
2022-11-19T07:14:42.895Z,1.95
2022-11-19T07:17:10.287Z,1.70
2022-11-19T07:19:37.605Z,1.70
2022-11-19T07:22:04.976Z,1.70
2022-11-19T07:24:32.386Z,1.95
2022-11-19T07:26:59.697Z,1.77
2022-11-19T07:29:27.106Z,2.10
2022-11-19T07:31:54.465Z,1.90
2022-11-19T07:34:21.975Z,2.00
2022-11-19T07:36:50.278Z,2.60
2022-11-19T07:39:18.285Z,2.55
2022-11-19T07:42:04.546Z,2.30
2022-11-19T07:44:33.790Z,2.60
2022-11-19T07:47:01.127Z,2.90
2022-11-19T07:49:28.628Z,2.58
2022-11-19T07:51:56.027Z,3.28
2022-11-19T07:54:23.445Z,4.10
2022-11-19T07:56:51.292Z,6.03
2022-11-19T07:59:19.419Z,4.93
2022-11-19T08:01:46.951Z,4.07
2022-11-19T08:04:14.495Z,3.83
2022-11-19T08:06:41.957Z,3.67
2022-11-19T08:09:09.411Z,4.40
2022-11-19T08:11:51.535Z,3.05
2022-11-19T08:14:52.414Z,2.83
2022-11-19T08:17:53.385Z,2.97
2022-11-19T08:20:20.836Z,2.50
2022-11-19T08:22:48.204Z,3.00
2022-11-19T08:25:15.747Z,2.58
2022-11-19T08:27:43.293Z,2.70
2022-11-19T08:30:11.200Z,2.50
2022-11-19T08:32:38.663Z,2.63
2022-11-19T08:35:06.751Z,2.60
2022-11-19T08:37:34.161Z,2.55
2022-11-19T08:40:01.750Z,3.85
2022-11-19T08:42:47.461Z,2.80
2022-11-19T08:45:20.530Z,2.95
2022-11-19T08:47:48.521Z,3.30
2022-11-19T08:50:16.302Z,4.10
2022-11-19T08:52:43.821Z,2.30
2022-11-19T08:55:11.340Z,2.55
2022-11-19T08:57:38.861Z,3.05
2022-11-19T09:00:06.829Z,3.03
2022-11-19T09:02:34.393Z,2.80
2022-11-19T09:05:01.861Z,3.15
2022-11-19T09:07:29.530Z,2.58
2022-11-19T09:09:57.001Z,2.95
2022-11-19T09:13:33.905Z,4.25
2022-11-19T09:16:01.636Z,5.43
2022-11-19T09:18:29.349Z,2.67
2022-11-19T09:20:57.406Z,7.32
2022-11-19T09:23:26.158Z,3.40
2022-11-19T09:26:05.426Z,2.80
2022-11-19T09:28:33.379Z,2.80
2022-11-19T09:31:04.096Z,3.40
2022-11-19T09:33:32.949Z,3.95
2022-11-19T09:36:00.249Z,3.00
2022-11-19T09:38:27.986Z,2.70
2022-11-19T09:40:56.808Z,4.15
2022-11-19T09:46:57.545Z,6.18
2022-11-19T09:49:34.516Z,3.83
2022-11-19T09:52:10.877Z,4.82
2022-11-19T09:54:46.815Z,4.30
2022-11-19T09:57:22.926Z,4.07
2022-11-19T09:59:51.946Z,3.67
2022-11-19T10:02:22.057Z,4.63
2022-11-19T10:04:51.398Z,3.83
2022-11-19T10:07:43.165Z,3.83
2022-11-19T10:10:46.587Z,4.75
2022-11-19T10:13:28.716Z,5.60
2022-11-19T10:16:18.598Z,4.47
2022-11-19T10:19:16.200Z,8.27
2022-11-19T10:21:50.317Z,4.60
2022-11-19T10:25:14.874Z,4.60
2022-11-19T10:27:46.534Z,8.17
2022-11-19T10:30:17.517Z,5.75
2022-11-19T10:32:57.113Z,4.90
2022-11-19T10:35:38.274Z,6.07
2022-11-19T10:38:19.424Z,7.20
2022-11-19T10:40:53.025Z,10.00
2022-11-19T10:43:59.508Z,6.55
2022-11-19T10:46:28.894Z,5.00
2022-11-19T10:48:59.175Z,5.35
2022-11-19T10:51:33.801Z,6.93
2022-11-19T10:54:05.344Z,10.63
2022-11-19T10:56:41.420Z,4.90
2022-11-19T10:59:11.854Z,7.22
2022-11-19T11:01:44.896Z,7.32
2022-11-19T11:04:23.506Z,5.90
2022-11-19T11:06:59.463Z,5.63
2022-11-19T11:09:43.666Z,5.88
2022-11-19T11:15:23.257Z,6.32
2022-11-19T11:18:01.546Z,7.25
2022-11-19T11:20:31.054Z,6.38
2022-11-19T11:23:04.444Z,6.75
2022-11-19T11:25:31.886Z,6.32
2022-11-19T11:28:11.355Z,8.70
2022-11-19T11:30:47.226Z,6.40
2022-11-19T11:33:27.965Z,7.05
2022-11-19T11:35:59.439Z,8.77
2022-11-19T11:38:28.225Z,8.70
2022-11-19T11:41:30.062Z,7.50
2022-11-19T11:44:02.579Z,6.30
2022-11-19T11:46:40.048Z,6.97
2022-11-19T11:49:12.868Z,7.60
2022-11-19T11:51:40.595Z,6.88
2022-11-19T11:54:18.772Z,6.38
2022-11-19T11:56:46.885Z,6.75
2022-11-19T11:59:35.455Z,6.72
2022-11-19T12:02:08.605Z,6.53
2022-11-19T12:04:36.065Z,6.32
2022-11-19T12:07:10.787Z,8.35
2022-11-19T12:09:44.206Z,9.93
2022-11-19T12:12:16.526Z,11.27
2022-11-19T12:14:57.984Z,9.15
2022-11-19T12:17:31.445Z,11.23
2022-11-19T12:20:22.764Z,8.00
2022-11-19T12:23:26.936Z,9.75
2022-11-19T12:26:23.646Z,12.27
2022-11-19T12:29:04.646Z,10.73
2022-11-19T12:31:38.265Z,13.07
2022-11-19T12:34:14.654Z,13.02
2022-11-19T12:37:13.095Z,12.57
2022-11-19T12:39:47.384Z,9.23
2022-11-19T12:42:20.885Z,9.32
2022-11-19T12:45:14.369Z,8.68
2022-11-19T12:48:02.541Z,8.10
2022-11-19T12:50:35.235Z,6.93
2022-11-19T12:53:11.874Z,6.68
2022-11-19T12:55:55.764Z,6.65
2022-11-19T12:58:51.034Z,6.72
2022-11-19T13:01:28.575Z,6.22
2022-11-19T13:04:05.424Z,6.25
2022-11-19T13:07:04.804Z,5.93
2022-11-19T13:09:47.520Z,6.72
2022-11-19T13:12:21.665Z,7.05
2022-11-19T13:15:02.684Z,5.88
2022-11-19T13:17:38.025Z,5.60
2022-11-19T13:20:21.766Z,5.40
2022-11-19T13:22:52.326Z,5.47
2022-11-19T13:25:27.605Z,5.40
2022-11-19T13:27:57.623Z,6.03
2022-11-19T13:30:27.111Z,5.43
2022-11-19T13:33:03.677Z,5.28
2022-11-19T13:35:42.165Z,5.45
2022-11-19T13:38:33.417Z,4.85
2022-11-19T13:42:14.455Z,4.57
2022-11-19T13:44:43.055Z,4.70
2022-11-19T13:47:22.404Z,4.30
2022-11-19T13:49:56.995Z,6.43
2022-11-19T13:52:34.545Z,6.30
2022-11-19T13:55:02.276Z,14.27
2022-11-19T13:57:44.335Z,8.07
2022-11-19T14:00:25.557Z,7.07
2022-11-19T14:03:26.925Z,5.10
2022-11-19T14:06:11.242Z,4.43
2022-11-19T14:08:48.456Z,4.18
2022-11-19T14:11:44.064Z,3.80
2022-11-19T14:14:42.018Z,3.28
2022-11-19T14:17:44.035Z,2.83
2022-11-19T14:20:57.625Z,2.70
2022-11-19T14:24:01.847Z,2.10
2022-11-19T14:26:41.517Z,2.30
2022-11-19T14:29:27.423Z,1.70
2022-11-19T14:32:00.537Z,1.83
2022-11-19T14:34:30.605Z,1.92
2022-11-19T14:37:02.173Z,1.90
2022-11-19T14:39:32.966Z,2.40
2022-11-19T14:42:17.965Z,2.47
2022-11-19T14:44:46.955Z,2.20
2022-11-19T14:47:24.423Z,1.90
2022-11-19T14:49:55.115Z,2.15
2022-11-19T14:53:01.684Z,2.20
2022-11-19T14:55:30.919Z,2.25
2022-11-19T14:58:21.633Z,2.08
2022-11-19T15:00:49.384Z,2.42
2022-11-19T15:03:26.121Z,1.90
2022-11-19T15:05:53.925Z,2.03
2022-11-19T15:08:21.256Z,1.90
2022-11-19T15:11:05.556Z,2.22
2022-11-19T15:13:39.271Z,1.80
2022-11-19T15:16:28.606Z,2.00
2022-11-19T15:19:07.225Z,1.95
2022-11-19T15:21:46.066Z,1.83
2022-11-19T15:24:25.656Z,2.00
2022-11-19T15:27:44.264Z,1.70
2022-11-19T15:30:20.575Z,2.30
2022-11-19T15:32:47.957Z,1.77
2022-11-19T15:35:23.574Z,1.77
2022-11-19T15:38:12.285Z,1.88
2022-11-19T15:40:45.174Z,1.90
2022-11-19T15:43:41.216Z,1.65
2022-11-19T15:46:18.906Z,1.98
2022-11-19T15:48:56.875Z,1.77
2022-11-19T15:51:24.465Z,1.70
2022-11-19T15:54:05.704Z,1.85
2022-11-19T15:56:40.028Z,1.80
2022-11-19T15:59:08.905Z,1.60
2022-11-19T16:01:36.626Z,1.70
2022-11-19T16:04:10.405Z,2.33
2022-11-19T16:06:40.214Z,1.67
2022-11-19T16:09:08.807Z,2.20
2022-11-19T16:11:56.493Z,1.75
2022-11-19T16:14:49.325Z,1.75
2022-11-19T16:17:39.773Z,2.38
2022-11-19T16:20:10.818Z,2.55
2022-11-19T16:23:05.534Z,2.20
2022-11-19T16:25:33.025Z,3.60
2022-11-19T16:28:10.813Z,3.67
2022-11-19T16:31:08.013Z,4.85
2022-11-19T16:33:35.630Z,5.35
2022-11-19T16:36:17.601Z,5.05
2022-11-19T16:38:50.515Z,5.30
2022-11-19T16:41:39.522Z,5.18
2022-11-19T16:44:12.852Z,5.60
2022-11-19T16:46:40.505Z,4.75
2022-11-19T16:49:33.595Z,4.95
2022-11-19T16:52:03.132Z,4.82
2022-11-19T16:54:47.427Z,4.75
2022-11-19T16:57:25.945Z,5.13
2022-11-19T16:59:56.184Z,4.18
2022-11-19T17:02:29.824Z,4.53
2022-11-19T17:05:06.527Z,4.25
2022-11-19T17:07:34.128Z,4.30
2022-11-19T17:10:12.484Z,5.43
2022-11-19T17:13:20.869Z,5.40
2022-11-19T17:15:50.295Z,5.72
2022-11-19T17:18:30.677Z,5.45
2022-11-19T17:21:07.677Z,4.60
2022-11-19T17:23:46.278Z,4.75
2022-11-19T17:26:21.954Z,3.97
2022-11-19T17:28:52.305Z,3.65
2022-11-19T17:31:23.469Z,3.60
2022-11-19T17:33:53.298Z,3.60
2022-11-19T17:36:22.186Z,3.33
2022-11-19T17:38:50.097Z,3.80
2022-11-19T17:41:40.115Z,5.20
2022-11-19T17:44:36.255Z,5.75
2022-11-19T17:47:24.024Z,5.75
2022-11-19T17:49:53.147Z,5.47
2022-11-19T17:52:31.390Z,5.65
2022-11-19T17:55:23.035Z,5.10
2022-11-19T17:57:50.407Z,5.10
2022-11-19T18:00:17.843Z,5.30
2022-11-19T18:02:48.827Z,4.97
2022-11-19T18:05:21.063Z,5.85
2022-11-19T18:07:48.494Z,5.78
2022-11-19T18:10:15.924Z,6.00
2022-11-19T18:12:43.354Z,5.32
2022-11-19T18:15:16.784Z,5.57
2022-11-19T18:17:44.385Z,4.97
2022-11-19T18:20:12.671Z,4.85
2022-11-19T18:22:41.263Z,5.30
2022-11-19T18:25:17.504Z,4.60
2022-11-19T18:27:45.413Z,5.20
2022-11-19T18:30:13.654Z,4.60
2022-11-19T18:32:41.496Z,4.40
2022-11-19T18:35:28.104Z,4.70
2022-11-19T18:37:55.604Z,4.78
2022-11-19T18:40:22.914Z,4.45
2022-11-19T18:43:08.694Z,4.63
2022-11-19T18:45:36.375Z,4.47
2022-11-19T18:48:03.964Z,4.45
2022-11-19T18:50:31.395Z,4.40
2022-11-19T18:52:58.766Z,4.25
2022-11-19T18:55:26.356Z,3.72
2022-11-19T18:57:53.803Z,4.13
2022-11-19T19:00:21.315Z,3.47
2022-11-19T19:02:48.736Z,3.65
2022-11-19T19:05:16.225Z,4.20
2022-11-19T19:07:43.669Z,4.63
2022-11-19T19:10:11.413Z,5.20
2022-11-19T19:12:38.784Z,5.30
2022-11-19T19:15:06.905Z,5.30
2022-11-19T19:17:34.254Z,4.97
2022-11-19T19:20:01.803Z,5.25
2022-11-19T19:22:29.946Z,4.50
2022-11-19T19:25:40.245Z,4.90
2022-11-19T19:28:26.304Z,4.50
2022-11-19T19:30:58.655Z,4.00
2022-11-19T19:33:26.444Z,4.30
2022-11-19T19:35:53.865Z,4.70
2022-11-19T19:38:21.385Z,4.85
2022-11-19T19:40:48.764Z,8.93
2022-11-19T19:43:16.276Z,9.45
2022-11-19T19:45:43.774Z,9.10
2022-11-19T19:48:11.254Z,10.00
2022-11-19T19:50:38.615Z,8.70
2022-11-19T19:53:06.148Z,8.38
2022-11-19T19:55:33.454Z,7.03
2022-11-19T19:58:05.451Z,4.85
2022-11-19T20:00:32.927Z,5.13
2022-11-19T20:03:06.515Z,5.28
2022-11-19T20:05:42.636Z,4.95
2022-11-19T20:08:35.124Z,4.40
2022-11-19T20:11:21.261Z,4.68
2022-11-19T20:13:48.783Z,5.47
2022-11-19T20:16:18.777Z,4.10
2022-11-19T20:18:56.265Z,4.50
2022-11-19T20:21:39.335Z,6.38
2022-11-19T20:24:12.868Z,5.05
2022-11-19T20:26:42.258Z,5.72
2022-11-19T20:29:12.864Z,4.53
2022-11-19T20:31:44.793Z,4.35
2022-11-19T20:34:13.056Z,4.68
2022-11-19T20:36:40.701Z,3.97
2022-11-19T20:39:08.284Z,4.38
2022-11-19T20:41:55.156Z,4.80
2022-11-19T20:44:25.692Z,5.78
2022-11-19T20:47:02.522Z,4.90
2022-11-19T20:49:32.506Z,5.82
2022-11-19T20:52:00.134Z,5.65
2022-11-19T20:54:28.221Z,5.22
2022-11-19T20:56:57.126Z,4.95
2022-11-19T20:59:26.343Z,5.28
2022-11-19T21:01:55.309Z,5.72
2022-11-19T21:04:23.937Z,5.60
2022-11-19T21:06:51.444Z,5.07
2022-11-19T21:09:20.156Z,5.65
2022-11-19T21:11:48.035Z,5.70
2022-11-19T21:14:15.617Z,5.93
2022-11-19T21:16:43.084Z,7.88
2022-11-19T21:19:12.908Z,6.38
2022-11-19T21:21:40.633Z,6.47
2022-11-19T21:24:08.695Z,5.68
2022-11-19T21:26:36.241Z,5.43
2022-11-19T21:29:03.924Z,5.97
2022-11-19T21:31:39.921Z,6.30
2022-11-19T21:34:09.864Z,9.98
2022-11-19T21:36:38.142Z,9.63
2022-11-19T21:39:06.913Z,8.57
2022-11-19T21:41:34.874Z,6.13
2022-11-19T21:44:03.923Z,6.20
2022-11-19T21:46:31.726Z,5.35
2022-11-19T21:48:59.253Z,6.05
2022-11-19T21:51:26.744Z,8.65
2022-11-19T21:53:55.633Z,9.02
2022-11-19T21:56:23.817Z,7.45
2022-11-19T21:58:51.473Z,6.60
2022-11-19T22:01:18.949Z,6.38
2022-11-19T22:03:46.607Z,7.65
2022-11-19T22:06:14.023Z,5.65
2022-11-19T22:08:42.465Z,5.82
2022-11-19T22:11:30.324Z,6.43
2022-11-19T22:14:07.332Z,6.40
2022-11-19T22:16:37.214Z,7.20
2022-11-19T22:19:05.807Z,8.10
2022-11-19T22:21:33.633Z,7.60
2022-11-19T22:24:01.087Z,6.40
2022-11-19T22:26:28.717Z,6.38
2022-11-19T22:28:56.498Z,6.43
2022-11-19T22:31:24.748Z,5.05
2022-11-19T22:33:53.924Z,6.43
2022-11-19T22:36:23.357Z,5.60
2022-11-19T22:38:51.571Z,5.60
2022-11-19T22:41:21.268Z,5.15
2022-11-19T22:43:48.997Z,5.38
2022-11-19T22:46:17.107Z,5.70
2022-11-19T22:48:44.411Z,5.88
2022-11-19T22:51:17.969Z,6.20
2022-11-19T22:53:45.777Z,6.95
2022-11-19T22:56:15.318Z,5.95
2022-11-19T22:58:43.212Z,4.90
2022-11-19T23:01:33.380Z,5.20
2022-11-19T23:04:05.938Z,5.53
2022-11-19T23:06:37.806Z,5.15
2022-11-19T23:09:06.411Z,5.30
2022-11-19T23:11:52.748Z,4.85
2022-11-19T23:14:20.668Z,4.82
2022-11-19T23:16:48.236Z,4.07
2022-11-19T23:19:19.451Z,4.57
2022-11-19T23:21:47.280Z,5.30
2022-11-19T23:24:14.918Z,4.82
2022-11-19T23:26:42.321Z,5.38
2022-11-19T23:29:09.733Z,5.70
2022-11-19T23:31:40.717Z,6.00
2022-11-19T23:34:08.548Z,5.40
2022-11-19T23:36:39.101Z,4.50
2022-11-19T23:39:09.836Z,4.80
2022-11-19T23:41:37.278Z,4.43
2022-11-19T23:44:04.676Z,4.22
2022-11-19T23:46:34.180Z,3.65
2022-11-19T23:49:02.307Z,4.07
2022-11-19T23:51:35.157Z,4.35
2022-11-19T23:54:03.261Z,3.80
2022-11-19T23:56:32.817Z,3.53
2022-11-19T23:59:02.409Z,3.40
